Time;durP1;ratioP1;P1;durP2;ratioP2;P2;SDS_P1;SDS_P2;PMS_P1;PMS_P2;Temp;Humidity;BMP_temperature;BMP_pressure;BME280_temperature;BME280_humidity;BME280_pressure;Samples;Min_cycle;Max_cycle;Signal;HPM_P1;HPM_P2
2022/03/12 00:02:14;;;;;;;9.52;6.30;;;;;;;;;;4942173;28;20055;-76
2022/03/12 00:04:41;;;;;;;9.85;6.78;;;;;;;;;;4941080;29;20050;-76
2022/03/12 00:07:09;;;;;;;12.65;6.43;;;;;;;;;;4942659;29;20054;-76
2022/03/12 00:09:35;;;;;;;7.90;5.68;;;;;;;;;;4948784;28;20052;-76
2022/03/12 00:12:01;;;;;;;8.23;6.47;;;;;;;;;;4945508;29;20525;-76
2022/03/12 00:14:28;;;;;;;7.75;6.53;;;;;;;;;;4938436;29;20051;-76
2022/03/12 00:16:54;;;;;;;8.45;5.95;;;;;;;;;;4946917;29;20082;-76
2022/03/12 00:19:20;;;;;;;8.02;6.68;;;;;;;;;;4938516;29;20394;-76
2022/03/12 00:21:49;;;;;;;9.95;6.50;;;;;;;;;;4928679;29;20547;-76
2022/03/12 00:24:16;;;;;;;8.07;5.40;;;;;;;;;;4941276;29;20040;-76
2022/03/12 00:26:43;;;;;;;9.00;6.57;;;;;;;;;;4946737;28;20042;-76
2022/03/12 00:29:14;;;;;;;9.98;6.70;;;;;;;;;;4946185;29;20481;-76
2022/03/12 00:31:40;;;;;;;8.65;6.90;;;;;;;;;;4941565;29;20047;-76
2022/03/12 00:34:06;;;;;;;8.95;6.50;;;;;;;;;;4944990;29;20042;-76
2022/03/12 00:36:32;;;;;;;8.80;6.32;;;;;;;;;;4943111;29;20059;-76
2022/03/12 00:38:58;;;;;;;8.55;6.10;;;;;;;;;;4942388;29;20056;-76
2022/03/12 00:41:25;;;;;;;7.63;6.40;;;;;;;;;;4938639;29;20046;-76
2022/03/12 00:43:52;;;;;;;7.47;6.47;;;;;;;;;;4942995;29;20086;-76
2022/03/12 00:46:19;;;;;;;11.70;7.18;;;;;;;;;;4944959;29;20059;-76
2022/03/12 00:48:45;;;;;;;9.45;6.68;;;;;;;;;;4942538;29;20043;-76
2022/03/12 00:51:11;;;;;;;7.68;6.40;;;;;;;;;;4925376;29;20103;-76
2022/03/12 00:53:38;;;;;;;8.98;6.63;;;;;;;;;;4922103;29;20064;-76
2022/03/12 00:56:05;;;;;;;7.90;6.38;;;;;;;;;;4942878;29;20126;-76
2022/03/12 00:58:31;;;;;;;11.05;6.43;;;;;;;;;;4946220;28;20658;-76
2022/03/12 01:00:57;;;;;;;9.05;6.63;;;;;;;;;;4950135;28;20125;-76
2022/03/12 01:03:23;;;;;;;8.13;6.53;;;;;;;;;;4974451;28;20129;-76
2022/03/12 01:05:49;;;;;;;7.45;6.32;;;;;;;;;;4938637;28;20046;-76
2022/03/12 01:08:15;;;;;;;10.23;6.47;;;;;;;;;;4937848;29;20054;-76
2022/03/12 01:10:46;;;;;;;10.15;6.82;;;;;;;;;;4950105;28;20130;-76
2022/03/12 01:13:12;;;;;;;9.03;6.73;;;;;;;;;;4949419;28;20442;-76
2022/03/12 01:15:39;;;;;;;9.60;6.80;;;;;;;;;;4928969;29;20046;-76
2022/03/12 01:18:09;;;;;;;9.80;6.32;;;;;;;;;;4945327;29;20118;-76
2022/03/12 01:20:35;;;;;;;10.75;7.00;;;;;;;;;;4932189;29;20043;-76
2022/03/12 01:23:01;;;;;;;7.65;6.72;;;;;;;;;;4959080;28;20122;-76
2022/03/12 01:25:28;;;;;;;12.30;6.50;;;;;;;;;;4951845;28;20047;-76
2022/03/12 01:27:54;;;;;;;10.02;7.07;;;;;;;;;;4955363;28;20075;-76
2022/03/12 01:30:27;;;;;;;7.43;6.70;;;;;;;;;;4932378;29;20043;-76
2022/03/12 01:32:53;;;;;;;9.43;6.80;;;;;;;;;;4931736;29;20058;-76
2022/03/12 01:35:19;;;;;;;10.82;6.65;;;;;;;;;;4933031;28;20055;-77
2022/03/12 01:37:45;;;;;;;7.90;6.88;;;;;;;;;;4936351;29;20047;-76
2022/03/12 01:40:11;;;;;;;8.80;6.65;;;;;;;;;;4948019;28;20350;-76
2022/03/12 01:42:37;;;;;;;7.20;5.32;;;;;;;;;;4949931;29;20051;-76
2022/03/12 01:45:09;;;;;;;9.52;6.90;;;;;;;;;;4931052;29;20102;-76
2022/03/12 01:47:35;;;;;;;8.60;6.70;;;;;;;;;;4948146;28;20047;-76
2022/03/12 01:50:01;;;;;;;7.63;6.53;;;;;;;;;;4934412;29;20047;-76
2022/03/12 01:52:29;;;;;;;10.50;6.63;;;;;;;;;;4948769;28;20134;-76
2022/03/12 01:54:55;;;;;;;11.77;7.18;;;;;;;;;;4955976;28;20049;-76
2022/03/12 01:57:21;;;;;;;9.05;6.75;;;;;;;;;;4947879;28;20035;-76
2022/03/12 01:59:48;;;;;;;9.20;7.40;;;;;;;;;;4952766;28;20710;-76
2022/03/12 02:02:15;;;;;;;8.38;7.55;;;;;;;;;;4948412;28;20050;-76
2022/03/12 02:04:41;;;;;;;9.43;7.03;;;;;;;;;;4948048;28;20042;-77
2022/03/12 02:07:08;;;;;;;8.95;6.70;;;;;;;;;;4950570;28;20378;-76
2022/03/12 02:09:34;;;;;;;8.95;6.60;;;;;;;;;;4949499;28;20035;-76
2022/03/12 02:12:00;;;;;;;8.55;6.63;;;;;;;;;;4954083;28;20046;-76
2022/03/12 02:14:27;;;;;;;8.23;6.45;;;;;;;;;;4952040;28;20055;-76
2022/03/12 02:16:57;;;;;;;10.35;7.50;;;;;;;;;;4951659;28;20445;-77
2022/03/12 02:19:25;;;;;;;7.53;6.50;;;;;;;;;;4954950;28;20039;-76
2022/03/12 02:21:52;;;;;;;9.10;7.40;;;;;;;;;;4943227;29;20433;-76
2022/03/12 02:24:19;;;;;;;8.75;6.85;;;;;;;;;;4951199;28;20062;-76
2022/03/12 02:26:46;;;;;;;9.77;6.80;;;;;;;;;;4948843;28;20154;-76
2022/03/12 02:29:19;;;;;;;8.25;6.53;;;;;;;;;;4949483;28;20053;-76
2022/03/12 02:31:47;;;;;;;9.50;6.65;;;;;;;;;;4948947;28;20585;-75
2022/03/12 02:34:14;;;;;;;10.18;6.65;;;;;;;;;;4953246;28;20078;-75
2022/03/12 02:36:40;;;;;;;7.93;6.45;;;;;;;;;;4948399;28;20051;-75
2022/03/12 02:39:07;;;;;;;11.15;7.30;;;;;;;;;;4953308;28;20122;-76
2022/03/12 02:41:34;;;;;;;9.18;7.10;;;;;;;;;;4951809;28;20382;-76
2022/03/12 02:44:00;;;;;;;7.80;5.82;;;;;;;;;;4930691;29;20138;-76
2022/03/12 02:46:31;;;;;;;10.73;7.22;;;;;;;;;;4949180;29;20437;-76
2022/03/12 02:48:57;;;;;;;9.02;7.00;;;;;;;;;;4944184;29;20831;-76
2022/03/12 02:51:23;;;;;;;9.70;7.03;;;;;;;;;;4941458;29;20050;-76
2022/03/12 02:53:50;;;;;;;8.75;7.20;;;;;;;;;;4947373;29;20066;-76
2022/03/12 02:56:17;;;;;;;9.63;7.50;;;;;;;;;;4931271;28;20043;-76
2022/03/12 02:58:43;;;;;;;10.70;7.88;;;;;;;;;;4950501;28;20049;-76
2022/03/12 03:01:14;;;;;;;7.80;6.35;;;;;;;;;;4952572;28;20050;-76
2022/03/12 03:03:41;;;;;;;9.25;7.75;;;;;;;;;;4922572;28;20051;-76
2022/03/12 03:06:08;;;;;;;8.52;7.53;;;;;;;;;;4958237;28;20457;-76
2022/03/12 03:08:36;;;;;;;9.40;7.50;;;;;;;;;;4951214;28;20535;-77
2022/03/12 03:11:08;;;;;;;8.93;6.75;;;;;;;;;;4954165;28;20058;-76
2022/03/12 03:13:40;;;;;;;9.55;7.80;;;;;;;;;;4953544;28;20114;-76
2022/03/12 03:16:11;;;;;;;9.00;7.00;;;;;;;;;;4936717;28;20039;-76
2022/03/12 03:18:39;;;;;;;9.07;7.20;;;;;;;;;;4952320;29;20039;-76
2022/03/12 03:21:07;;;;;;;10.52;7.63;;;;;;;;;;4932881;29;20074;-76
2022/03/12 03:23:33;;;;;;;11.25;7.05;;;;;;;;;;4937222;28;20146;-76
2022/03/12 03:26:00;;;;;;;11.13;7.63;;;;;;;;;;4954519;28;20078;-76
2022/03/12 03:28:26;;;;;;;11.40;7.55;;;;;;;;;;4938172;29;20043;-76
2022/03/12 03:30:52;;;;;;;10.57;6.85;;;;;;;;;;4938578;29;20055;-76
2022/03/12 03:33:20;;;;;;;8.05;7.07;;;;;;;;;;4951368;29;20130;-76
2022/03/12 03:35:46;;;;;;;9.77;6.85;;;;;;;;;;4956868;28;20055;-76
2022/03/12 03:38:13;;;;;;;9.32;7.47;;;;;;;;;;4935019;28;20446;-76
2022/03/12 03:40:39;;;;;;;9.80;6.95;;;;;;;;;;4936697;29;20047;-75
2022/03/12 03:43:09;;;;;;;10.82;7.63;;;;;;;;;;4947377;29;20039;-76
2022/03/12 03:45:35;;;;;;;9.73;7.20;;;;;;;;;;4947894;29;20489;-76
2022/03/12 03:48:01;;;;;;;9.90;6.82;;;;;;;;;;4958238;28;20043;-76
2022/03/12 03:50:27;;;;;;;9.05;6.88;;;;;;;;;;4960040;28;20043;-76
2022/03/12 03:52:56;;;;;;;9.95;6.93;;;;;;;;;;4945011;28;20057;-75
2022/03/12 03:55:25;;;;;;;8.93;6.88;;;;;;;;;;4925651;28;20466;-76
2022/03/12 03:57:53;;;;;;;9.35;6.88;;;;;;;;;;4952236;28;20484;-76
2022/03/12 04:00:21;;;;;;;9.60;7.10;;;;;;;;;;4942476;29;20374;-76
2022/03/12 04:02:47;;;;;;;8.55;7.00;;;;;;;;;;4955093;28;20047;-76
2022/03/12 04:05:14;;;;;;;8.85;6.97;;;;;;;;;;4944479;28;20040;-76
2022/03/12 04:07:40;;;;;;;8.18;6.50;;;;;;;;;;4955389;28;20046;-76
2022/03/12 04:10:06;;;;;;;9.95;7.13;;;;;;;;;;4953346;28;20039;-76
2022/03/12 04:12:32;;;;;;;9.38;6.50;;;;;;;;;;4951205;28;20416;-76
2022/03/12 04:14:58;;;;;;;8.95;7.10;;;;;;;;;;4951027;28;20050;-76
2022/03/12 04:17:24;;;;;;;9.13;6.38;;;;;;;;;;4954963;28;20039;-76
2022/03/12 04:19:50;;;;;;;9.00;6.60;;;;;;;;;;4953567;28;20477;-76
2022/03/12 04:22:16;;;;;;;9.10;6.78;;;;;;;;;;4943629;29;20039;-76
2022/03/12 04:24:43;;;;;;;8.15;6.97;;;;;;;;;;4953783;28;20516;-76
2022/03/12 04:27:09;;;;;;;8.75;6.47;;;;;;;;;;4949094;28;20046;-76
2022/03/12 04:29:35;;;;;;;8.35;6.68;;;;;;;;;;4954268;28;20374;-76
2022/03/12 04:32:01;;;;;;;9.10;7.00;;;;;;;;;;4948222;28;20050;-76
2022/03/12 04:34:26;;;;;;;9.43;7.20;;;;;;;;;;4935456;29;20035;-76
2022/03/12 04:36:53;;;;;;;8.27;5.93;;;;;;;;;;4953482;28;20058;-76
2022/03/12 04:39:19;;;;;;;7.80;6.53;;;;;;;;;;4952594;28;20062;-76
2022/03/12 04:41:46;;;;;;;8.73;6.60;;;;;;;;;;4954859;28;20440;-76
2022/03/12 04:44:12;;;;;;;9.40;6.78;;;;;;;;;;4957187;28;20078;-76
2022/03/12 04:46:38;;;;;;;7.28;6.32;;;;;;;;;;4954528;28;20046;-76
2022/03/12 04:49:04;;;;;;;8.80;6.55;;;;;;;;;;4951267;28;20039;-76
2022/03/12 04:51:30;;;;;;;11.00;7.05;;;;;;;;;;4952043;29;20046;-76
2022/03/12 04:54:00;;;;;;;7.53;6.75;;;;;;;;;;4949835;28;20047;-76
2022/03/12 04:56:26;;;;;;;8.52;6.95;;;;;;;;;;4951785;29;20035;-76
2022/03/12 04:58:53;;;;;;;7.78;6.88;;;;;;;;;;4948997;29;20046;-76
2022/03/12 05:01:20;;;;;;;8.02;7.10;;;;;;;;;;4946524;29;20070;-76
2022/03/12 05:03:47;;;;;;;7.63;6.22;;;;;;;;;;4950886;29;20552;-76
2022/03/12 05:06:13;;;;;;;8.45;6.65;;;;;;;;;;4946340;29;20047;-76
2022/03/12 05:08:39;;;;;;;8.50;6.43;;;;;;;;;;4946325;29;20113;-76
2022/03/12 05:11:05;;;;;;;7.78;6.38;;;;;;;;;;4934753;29;20035;-76
2022/03/12 05:13:32;;;;;;;7.60;6.35;;;;;;;;;;4950064;29;20038;-76
2022/03/12 05:16:05;;;;;;;10.82;6.45;;;;;;;;;;4948918;29;20047;-76
2022/03/12 05:18:32;;;;;;;9.20;6.68;;;;;;;;;;4951374;29;20130;-76
2022/03/12 05:20:58;;;;;;;8.27;6.47;;;;;;;;;;4947185;29;20069;-76
2022/03/12 05:23:24;;;;;;;8.07;6.65;;;;;;;;;;4950754;29;20097;-76
2022/03/12 05:25:51;;;;;;;11.77;7.28;;;;;;;;;;4950020;29;20051;-76
2022/03/12 05:28:19;;;;;;;8.05;6.65;;;;;;;;;;4949999;29;20046;-76
2022/03/12 05:30:46;;;;;;;8.32;6.47;;;;;;;;;;4948516;29;20546;-76
2022/03/12 05:33:16;;;;;;;10.18;7.30;;;;;;;;;;4948655;29;20043;-76
2022/03/12 05:35:43;;;;;;;8.13;6.63;;;;;;;;;;4947786;28;20056;-76
2022/03/12 05:38:11;;;;;;;10.20;7.05;;;;;;;;;;4949392;29;20122;-76
2022/03/12 05:40:39;;;;;;;8.48;6.43;;;;;;;;;;4946659;29;20051;-77
2022/03/12 05:43:09;;;;;;;7.75;6.75;;;;;;;;;;4931354;29;20043;-77
2022/03/12 05:45:36;;;;;;;11.35;6.75;;;;;;;;;;4946223;29;20051;-77
2022/03/12 05:48:02;;;;;;;10.52;6.25;;;;;;;;;;4941238;29;20043;-77
2022/03/12 05:50:28;;;;;;;11.13;6.38;;;;;;;;;;4943544;29;20093;-77
2022/03/12 05:52:54;;;;;;;8.60;6.47;;;;;;;;;;4946684;28;20047;-77
2022/03/12 05:55:21;;;;;;;11.40;6.43;;;;;;;;;;4946302;29;20043;-77
2022/03/12 05:57:47;;;;;;;7.10;6.07;;;;;;;;;;4950825;29;20047;-77
2022/03/12 06:00:15;;;;;;;6.95;6.25;;;;;;;;;;4950556;29;20488;-77
2022/03/12 06:02:51;;;;;;;7.55;6.55;;;;;;;;;;4948467;29;20122;-77
2022/03/12 06:05:21;;;;;;;9.60;6.82;;;;;;;;;;4943004;29;20212;-77
2022/03/12 06:07:47;;;;;;;8.15;5.97;;;;;;;;;;4950051;29;20042;-77
2022/03/12 06:10:15;;;;;;;9.95;6.50;;;;;;;;;;4945006;29;20412;-77
2022/03/12 06:12:43;;;;;;;8.65;6.97;;;;;;;;;;4949590;29;20035;-77
2022/03/12 06:15:10;;;;;;;10.40;6.35;;;;;;;;;;4934409;29;20035;-77
2022/03/12 06:17:38;;;;;;;10.88;6.85;;;;;;;;;;4944981;29;20043;-77
2022/03/12 06:20:04;;;;;;;8.55;6.20;;;;;;;;;;4945450;29;20556;-77
2022/03/12 06:22:30;;;;;;;8.18;6.65;;;;;;;;;;4943424;29;20073;-77
2022/03/12 06:24:56;;;;;;;9.23;6.90;;;;;;;;;;4923161;29;20047;-77
2022/03/12 06:27:22;;;;;;;6.88;6.25;;;;;;;;;;4945219;29;20074;-77
2022/03/12 06:29:48;;;;;;;9.40;6.88;;;;;;;;;;4951075;29;20073;-77
2022/03/12 06:32:15;;;;;;;9.27;6.60;;;;;;;;;;4947639;29;20043;-77
2022/03/12 06:34:42;;;;;;;15.65;10.43;;;;;;;;;;4951004;29;20512;-77
2022/03/12 06:37:08;;;;;;;12.93;8.98;;;;;;;;;;4928867;29;20095;-77
2022/03/12 06:39:34;;;;;;;7.72;6.35;;;;;;;;;;4950769;29;20048;-77
2022/03/12 06:42:02;;;;;;;8.70;6.50;;;;;;;;;;4930478;29;20491;-77
2022/03/12 06:44:32;;;;;;;6.97;6.25;;;;;;;;;;4947160;29;20051;-77
2022/03/12 06:46:58;;;;;;;7.82;6.28;;;;;;;;;;4941989;29;20503;-77
2022/03/12 06:49:24;;;;;;;8.02;6.25;;;;;;;;;;4953873;28;20050;-77
2022/03/12 06:51:50;;;;;;;7.25;6.20;;;;;;;;;;4953876;29;20047;-77
2022/03/12 06:54:17;;;;;;;8.88;6.07;;;;;;;;;;4954944;29;20042;-77
2022/03/12 06:56:43;;;;;;;8.18;6.45;;;;;;;;;;4938242;29;20089;-77
2022/03/12 06:59:09;;;;;;;8.10;6.60;;;;;;;;;;4952371;28;20059;-77
2022/03/12 07:01:34;;;;;;;13.90;9.15;;;;;;;;;;4953025;29;20886;-77
2022/03/12 07:04:01;;;;;;;8.57;7.05;;;;;;;;;;4953550;29;20043;-77
2022/03/12 07:06:27;;;;;;;10.75;6.15;;;;;;;;;;4949484;29;20083;-77
2022/03/12 07:08:52;;;;;;;22.63;7.40;;;;;;;;;;4938519;29;20078;-77
2022/03/12 07:11:19;;;;;;;9.25;6.70;;;;;;;;;;4953499;29;20054;-77
2022/03/12 07:13:45;;;;;;;8.88;6.38;;;;;;;;;;4947472;29;20043;-77
2022/03/12 07:16:11;;;;;;;7.50;6.40;;;;;;;;;;4925151;29;20035;-77
2022/03/12 07:18:38;;;;;;;10.23;6.05;;;;;;;;;;4949858;29;20042;-77
2022/03/12 07:21:04;;;;;;;8.20;6.60;;;;;;;;;;4937681;29;20054;-77
2022/03/12 07:23:30;;;;;;;7.55;6.30;;;;;;;;;;4953460;29;20050;-77
2022/03/12 07:25:56;;;;;;;8.45;6.75;;;;;;;;;;4933374;29;20051;-77
2022/03/12 07:28:22;;;;;;;10.00;6.65;;;;;;;;;;4949219;29;20054;-77
2022/03/12 07:30:48;;;;;;;10.35;6.68;;;;;;;;;;4940330;29;20051;-77
2022/03/12 07:33:15;;;;;;;8.52;6.35;;;;;;;;;;4949334;29;20488;-77
2022/03/12 07:35:42;;;;;;;8.52;5.90;;;;;;;;;;4937535;29;20078;-77
2022/03/12 07:38:08;;;;;;;7.63;6.53;;;;;;;;;;4934693;29;20039;-77
2022/03/12 07:40:34;;;;;;;9.18;7.20;;;;;;;;;;4934938;29;20058;-77
2022/03/12 07:43:00;;;;;;;8.60;6.72;;;;;;;;;;4938437;28;20048;-77
2022/03/12 07:45:26;;;;;;;8.27;7.10;;;;;;;;;;4951496;29;20047;-77
2022/03/12 07:47:52;;;;;;;8.15;6.45;;;;;;;;;;4948660;29;20687;-77
2022/03/12 07:50:18;;;;;;;9.55;6.57;;;;;;;;;;4952112;29;20493;-77
2022/03/12 07:52:44;;;;;;;8.57;6.53;;;;;;;;;;4948466;29;20146;-77
2022/03/12 07:55:11;;;;;;;8.23;6.47;;;;;;;;;;4936523;29;20178;-77
2022/03/12 07:57:37;;;;;;;10.55;6.63;;;;;;;;;;4936916;29;20479;-77
2022/03/12 08:00:06;;;;;;;9.15;6.20;;;;;;;;;;4952416;28;20031;-77
2022/03/12 08:02:31;;;;;;;9.80;6.70;;;;;;;;;;4951030;29;20051;-77
2022/03/12 08:04:58;;;;;;;8.85;7.38;;;;;;;;;;4951275;29;20077;-77
2022/03/12 08:07:24;;;;;;;10.55;6.93;;;;;;;;;;4952732;29;20043;-77
2022/03/12 08:09:55;;;;;;;9.27;6.93;;;;;;;;;;4953003;29;20102;-77
2022/03/12 08:12:23;;;;;;;12.00;7.20;;;;;;;;;;4949751;28;20112;-77
2022/03/12 08:14:49;;;;;;;7.82;6.68;;;;;;;;;;4953836;28;20851;-76
2022/03/12 08:17:15;;;;;;;8.90;6.68;;;;;;;;;;4952155;28;20050;-76
2022/03/12 08:19:41;;;;;;;7.88;6.90;;;;;;;;;;4952943;29;20051;-76
2022/03/12 08:22:07;;;;;;;10.45;6.82;;;;;;;;;;4946006;28;20107;-76
2022/03/12 08:24:34;;;;;;;12.77;6.70;;;;;;;;;;4950097;29;20490;-76
2022/03/12 08:27:00;;;;;;;10.43;8.02;;;;;;;;;;4952293;29;20050;-76
2022/03/12 08:29:26;;;;;;;11.70;8.55;;;;;;;;;;4951076;29;20462;-76
2022/03/12 08:31:52;;;;;;;9.65;8.68;;;;;;;;;;4929820;29;20055;-76
2022/03/12 08:34:18;;;;;;;10.35;7.95;;;;;;;;;;4934441;29;20039;-77
2022/03/12 08:36:45;;;;;;;8.57;6.60;;;;;;;;;;4946871;29;20055;-77
2022/03/12 08:39:12;;;;;;;9.43;7.57;;;;;;;;;;4948331;29;20573;-77
2022/03/12 08:41:38;;;;;;;9.90;7.70;;;;;;;;;;4935930;29;20074;-76
2022/03/12 08:44:06;;;;;;;8.27;7.38;;;;;;;;;;4948582;28;20067;-77
2022/03/12 08:46:32;;;;;;;10.48;7.30;;;;;;;;;;4930138;29;20078;-77
2022/03/12 08:48:58;;;;;;;9.77;7.43;;;;;;;;;;4949224;29;20199;-77
2022/03/12 08:51:24;;;;;;;9.15;7.03;;;;;;;;;;4932345;29;20047;-76
2022/03/12 08:53:50;;;;;;;8.90;7.18;;;;;;;;;;4928863;29;20573;-77
2022/03/12 08:56:16;;;;;;;11.00;7.85;;;;;;;;;;4947269;29;20163;-77
2022/03/12 08:58:42;;;;;;;10.02;7.13;;;;;;;;;;4941416;28;20102;-77
2022/03/12 09:01:08;;;;;;;9.18;7.30;;;;;;;;;;4944228;29;20039;-77
2022/03/12 09:03:35;;;;;;;8.50;7.50;;;;;;;;;;4929291;29;20074;-76
2022/03/12 09:06:02;;;;;;;15.13;8.23;;;;;;;;;;4948898;29;20069;-76
2022/03/12 09:08:28;;;;;;;9.90;7.43;;;;;;;;;;4946163;29;20043;-76
2022/03/12 09:10:55;;;;;;;9.57;7.72;;;;;;;;;;4943373;29;20047;-75
2022/03/12 09:13:21;;;;;;;8.73;7.45;;;;;;;;;;4946689;29;20492;-75
2022/03/12 09:15:47;;;;;;;11.15;7.57;;;;;;;;;;4950310;29;20134;-76
2022/03/12 09:18:14;;;;;;;8.88;7.25;;;;;;;;;;4938683;29;20059;-76
2022/03/12 09:20:47;;;;;;;9.65;7.60;;;;;;;;;;4949952;29;20051;-76
2022/03/12 09:23:15;;;;;;;8.25;7.22;;;;;;;;;;4959397;28;20047;-75
2022/03/12 09:25:41;;;;;;;8.60;7.13;;;;;;;;;;4949875;29;20126;-75
2022/03/12 09:28:08;;;;;;;10.48;8.98;;;;;;;;;;4949809;29;20089;-75
2022/03/12 09:30:34;;;;;;;8.68;7.53;;;;;;;;;;4949917;29;20035;-76
2022/03/12 09:33:00;;;;;;;8.50;7.57;;;;;;;;;;4950654;29;20138;-75
2022/03/12 09:35:28;;;;;;;8.65;7.53;;;;;;;;;;4934706;29;20134;-75
2022/03/12 09:37:55;;;;;;;11.05;7.43;;;;;;;;;;4950631;28;20051;-75
2022/03/12 09:40:21;;;;;;;9.45;7.88;;;;;;;;;;4950724;29;20039;-76
2022/03/12 09:42:47;;;;;;;12.23;6.95;;;;;;;;;;4950663;29;20121;-75
2022/03/12 09:45:13;;;;;;;9.23;7.90;;;;;;;;;;4950001;29;20050;-75
2022/03/12 09:47:40;;;;;;;8.68;7.88;;;;;;;;;;4934923;29;20047;-75
2022/03/12 09:50:06;;;;;;;10.75;7.60;;;;;;;;;;4950521;29;20077;-75
2022/03/12 09:52:32;;;;;;;10.55;7.85;;;;;;;;;;4931729;29;20382;-75
2022/03/12 09:54:58;;;;;;;9.88;8.32;;;;;;;;;;4948935;29;20071;-75
2022/03/12 09:57:24;;;;;;;10.65;7.80;;;;;;;;;;4927461;29;20062;-75
2022/03/12 09:59:50;;;;;;;9.20;7.90;;;;;;;;;;4938636;29;20461;-76
2022/03/12 10:02:16;;;;;;;12.98;8.05;;;;;;;;;;4922222;29;20079;-75
2022/03/12 10:04:43;;;;;;;13.23;7.85;;;;;;;;;;4939560;28;20051;-75
2022/03/12 10:07:09;;;;;;;9.82;7.95;;;;;;;;;;4941311;29;20043;-75
2022/03/12 10:09:36;;;;;;;11.25;8.70;;;;;;;;;;4936648;28;20055;-75
2022/03/12 10:12:02;;;;;;;8.98;7.70;;;;;;;;;;4940938;29;20532;-75
2022/03/12 10:14:29;;;;;;;9.25;8.23;;;;;;;;;;4921093;29;20141;-75
2022/03/12 10:16:55;;;;;;;9.75;8.52;;;;;;;;;;4936766;29;20069;-75
2022/03/12 10:19:21;;;;;;;13.75;8.95;;;;;;;;;;4945226;29;20417;-75
2022/03/12 10:21:47;;;;;;;9.43;8.18;;;;;;;;;;4931864;29;20047;-75
2022/03/12 10:24:13;;;;;;;10.80;8.63;;;;;;;;;;4952852;28;20512;-75
2022/03/12 10:26:40;;;;;;;9.90;8.18;;;;;;;;;;4946753;29;20040;-75
2022/03/12 10:29:06;;;;;;;9.68;8.43;;;;;;;;;;4950618;29;20475;-75
2022/03/12 10:31:32;;;;;;;10.60;8.23;;;;;;;;;;4953387;29;20066;-75
2022/03/12 10:34:14;;;;;;;8.95;7.85;;;;;;;;;;4952025;29;20071;-75
2022/03/12 10:36:40;;;;;;;10.40;7.60;;;;;;;;;;4935218;29;20413;-75
2022/03/12 10:39:06;;;;;;;10.70;8.30;;;;;;;;;;4966945;28;20477;-75
2022/03/12 10:41:32;;;;;;;10.00;8.80;;;;;;;;;;4946991;29;20044;-75
2022/03/12 10:43:58;;;;;;;10.48;8.70;;;;;;;;;;4952000;29;20051;-75
2022/03/12 10:46:27;;;;;;;10.88;9.13;;;;;;;;;;4951016;29;20086;-75
2022/03/12 10:48:56;;;;;;;12.10;8.60;;;;;;;;;;4949887;29;20516;-75
2022/03/12 10:51:25;;;;;;;12.10;8.88;;;;;;;;;;4965820;23;20058;-87
2022/03/12 10:53:51;;;;;;;10.80;8.27;;;;;;;;;;4963601;28;20090;-86
2022/03/12 10:56:18;;;;;;;14.80;9.00;;;;;;;;;;4966501;28;20039;-86
2022/03/12 10:58:44;;;;;;;10.10;8.00;;;;;;;;;;4959241;28;20050;-86
2022/03/12 11:01:10;;;;;;;10.82;8.65;;;;;;;;;;4960215;28;20089;-86
2022/03/12 11:03:37;;;;;;;9.27;8.18;;;;;;;;;;4957971;28;20042;-86
2022/03/12 11:06:05;;;;;;;10.80;9.02;;;;;;;;;;4943598;28;20105;-86
2022/03/12 11:08:32;;;;;;;9.82;8.75;;;;;;;;;;4959044;28;20377;-86
2022/03/12 11:11:12;;;;;;;10.45;9.05;;;;;;;;;;4989439;28;20050;-85
2022/03/12 11:13:47;;;;;;;10.88;9.20;;;;;;;;;;4957817;28;20100;-85
2022/03/12 11:16:18;;;;;;;9.70;8.80;;;;;;;;;;4957629;28;20065;-85
2022/03/12 11:18:53;;;;;;;10.88;8.57;;;;;;;;;;4973521;28;20043;-85
2022/03/12 11:21:33;;;;;;;10.35;9.05;;;;;;;;;;4948967;28;20077;-85
2022/03/12 11:23:59;;;;;;;9.32;8.30;;;;;;;;;;4946813;28;20078;-85
2022/03/12 11:26:26;;;;;;;10.05;8.10;;;;;;;;;;4954287;28;20050;-85
2022/03/12 11:28:56;;;;;;;10.05;8.80;;;;;;;;;;4941125;28;20054;-85
2022/03/12 11:31:37;;;;;;;10.30;8.43;;;;;;;;;;4960895;28;20053;-85
2022/03/12 11:34:13;;;;;;;8.67;7.73;;;;;;;;;;4957990;28;20043;-86
2022/03/12 11:36:42;;;;;;;9.02;8.13;;;;;;;;;;4953178;28;20043;-85
2022/03/12 11:39:08;;;;;;;10.27;8.07;;;;;;;;;;4970946;28;20050;-85
2022/03/12 11:41:37;;;;;;;9.60;8.13;;;;;;;;;;4961953;28;20054;-85
2022/03/12 11:44:07;;;;;;;14.75;8.23;;;;;;;;;;4953050;28;20055;-85
2022/03/12 11:46:33;;;;;;;8.30;7.50;;;;;;;;;;4941674;28;20046;-85
2022/03/12 11:49:00;;;;;;;8.30;7.50;;;;;;;;;;4958389;28;20101;-85
2022/03/12 11:51:27;;;;;;;9.93;8.23;;;;;;;;;;4958166;28;20512;-84
2022/03/12 11:53:54;;;;;;;10.35;8.38;;;;;;;;;;4963939;28;20047;-85
2022/03/12 11:56:22;;;;;;;10.48;7.78;;;;;;;;;;4957595;28;20038;-83
2022/03/12 11:58:48;;;;;;;7.90;7.13;;;;;;;;;;4950974;28;20035;-82
2022/03/12 12:01:20;;;;;;;10.35;7.13;;;;;;;;;;4959700;28;20511;-82
2022/03/12 12:03:50;;;;;;;8.30;6.95;;;;;;;;;;4939386;28;20045;-82
2022/03/12 12:06:17;;;;;;;7.95;6.90;;;;;;;;;;4956166;28;20500;-82
2022/03/12 12:08:43;;;;;;;9.52;7.78;;;;;;;;;;4956449;28;20743;-83
2022/03/12 12:11:10;;;;;;;8.40;7.50;;;;;;;;;;4964810;28;20078;-83
2022/03/12 12:13:36;;;;;;;6.93;6.22;;;;;;;;;;4968362;28;20074;-83
2022/03/12 12:16:05;;;;;;;8.20;7.15;;;;;;;;;;4956320;28;20168;-83
2022/03/12 12:18:31;;;;;;;8.27;6.82;;;;;;;;;;4939159;28;20035;-82
2022/03/12 12:20:57;;;;;;;9.63;7.65;;;;;;;;;;4944745;28;20466;-82
2022/03/12 12:23:23;;;;;;;9.15;7.65;;;;;;;;;;4958052;28;20325;-82
2022/03/12 12:25:49;;;;;;;8.65;7.03;;;;;;;;;;4956518;28;20090;-82
2022/03/12 12:28:16;;;;;;;9.90;7.30;;;;;;;;;;4956330;28;20039;-83
2022/03/12 12:30:44;;;;;;;8.98;6.95;;;;;;;;;;4955466;28;20070;-83
2022/03/12 12:33:22;;;;;;;7.82;6.68;;;;;;;;;;4984676;28;20041;-82
2022/03/12 12:35:50;;;;;;;7.75;6.55;;;;;;;;;;4951049;28;20054;-82
2022/03/12 12:38:21;;;;;;;7.55;5.78;;;;;;;;;;4951926;28;20043;-82
2022/03/12 12:40:47;;;;;;;7.85;6.38;;;;;;;;;;4952039;28;20070;-82
2022/03/12 12:43:17;;;;;;;7.03;6.32;;;;;;;;;;4946644;28;20050;-82
2022/03/12 12:46:05;;;;;;;8.77;6.30;;;;;;;;;;4921890;28;20502;-82
2022/03/12 12:48:52;;;;;;;8.90;6.70;;;;;;;;;;4943237;28;20476;-82
2022/03/12 12:51:21;;;;;;;7.93;6.60;;;;;;;;;;4983421;28;20062;-82
2022/03/12 12:53:57;;;;;;;9.75;6.57;;;;;;;;;;4953099;28;20760;-81
2022/03/12 12:56:25;;;;;;;8.55;6.85;;;;;;;;;;4961171;28;20058;-81
2022/03/12 12:58:57;;;;;;;7.43;6.00;;;;;;;;;;4933294;28;20043;-81
2022/03/12 13:01:24;;;;;;;8.65;6.40;;;;;;;;;;4942305;28;20066;-81
2022/03/12 13:03:52;;;;;;;7.85;6.13;;;;;;;;;;4936059;28;20042;-81
2022/03/12 13:06:36;;;;;;;9.10;6.47;;;;;;;;;;4949871;28;20456;-82
2022/03/12 13:09:25;;;;;;;8.82;6.50;;;;;;;;;;4953142;28;20126;-81
2022/03/12 13:11:58;;;;;;;9.07;6.47;;;;;;;;;;4920227;28;20210;-82
2022/03/12 13:14:29;;;;;;;7.43;6.72;;;;;;;;;;4952491;28;20041;-82
2022/03/12 13:16:56;;;;;;;8.25;6.43;;;;;;;;;;4956355;28;20087;-82
2022/03/12 13:19:33;;;;;;;8.35;6.15;;;;;;;;;;4955542;28;20180;-82
2022/03/12 13:22:05;;;;;;;9.48;6.65;;;;;;;;;;4953358;28;20047;-81
2022/03/12 13:24:33;;;;;;;7.45;6.63;;;;;;;;;;4957031;28;20050;-82
2022/03/12 13:27:00;;;;;;;6.88;6.18;;;;;;;;;;4951350;28;20066;-82
2022/03/12 13:29:26;;;;;;;8.10;6.60;;;;;;;;;;4967419;28;20043;-82
2022/03/12 13:31:54;;;;;;;8.18;6.03;;;;;;;;;;4949379;28;20133;-82
2022/03/12 13:34:20;;;;;;;8.25;6.22;;;;;;;;;;4951816;28;20057;-82
2022/03/12 13:36:47;;;;;;;7.13;5.82;;;;;;;;;;4951634;28;20504;-82
2022/03/12 13:39:14;;;;;;;8.65;6.07;;;;;;;;;;4956162;28;20504;-82
2022/03/12 13:41:42;;;;;;;6.15;5.55;;;;;;;;;;4946399;28;20046;-82
2022/03/12 13:44:08;;;;;;;9.63;5.55;;;;;;;;;;4954892;28;20049;-82
2022/03/12 13:46:34;;;;;;;8.55;5.82;;;;;;;;;;4940924;28;20593;-82
2022/03/12 13:49:00;;;;;;;6.38;5.22;;;;;;;;;;4937782;28;20536;-82
2022/03/12 13:51:27;;;;;;;9.35;5.97;;;;;;;;;;4952918;28;20130;-82
2022/03/12 13:53:54;;;;;;;7.72;5.55;;;;;;;;;;4958223;28;20042;-82
2022/03/12 13:56:20;;;;;;;6.97;5.13;;;;;;;;;;4938368;28;20072;-82
2022/03/12 13:58:46;;;;;;;8.05;5.40;;;;;;;;;;4960363;28;20078;-82
2022/03/12 14:01:29;;;;;;;7.70;5.50;;;;;;;;;;4955998;28;20081;-82
2022/03/12 14:03:55;;;;;;;8.32;5.70;;;;;;;;;;4952617;28;20473;-83
2022/03/12 14:06:35;;;;;;;8.15;6.20;;;;;;;;;;4951909;28;20508;-83
2022/03/12 14:09:04;;;;;;;7.18;5.45;;;;;;;;;;4954630;28;20050;-83
2022/03/12 14:11:34;;;;;;;6.82;6.13;;;;;;;;;;4949131;28;20058;-82
2022/03/12 14:14:08;;;;;;;5.75;5.05;;;;;;;;;;4952749;28;20038;-82
2022/03/12 14:16:36;;;;;;;8.35;6.10;;;;;;;;;;4941819;28;20704;-83
2022/03/12 14:19:05;;;;;;;7.43;5.72;;;;;;;;;;4951723;28;20046;-83
2022/03/12 14:21:42;;;;;;;7.45;5.40;;;;;;;;;;4959920;28;20039;-83
2022/03/12 14:24:15;;;;;;;6.70;5.63;;;;;;;;;;4951722;28;20059;-83
2022/03/12 14:26:46;;;;;;;6.90;5.63;;;;;;;;;;4967015;28;20047;-82
2022/03/12 14:29:12;;;;;;;6.63;5.60;;;;;;;;;;4958771;28;20377;-82
2022/03/12 14:31:38;;;;;;;6.72;5.43;;;;;;;;;;4948486;28;20047;-82
2022/03/12 14:34:05;;;;;;;6.70;5.72;;;;;;;;;;4953008;28;20058;-82
2022/03/12 14:36:32;;;;;;;6.97;5.47;;;;;;;;;;4934523;28;20050;-82
2022/03/12 14:39:01;;;;;;;9.82;5.95;;;;;;;;;;4952391;28;20046;-82
2022/03/12 14:41:27;;;;;;;8.60;5.60;;;;;;;;;;4954503;28;20062;-82
2022/03/12 14:43:54;;;;;;;6.22;5.15;;;;;;;;;;4962771;28;20047;-82